createdAt,value
2018-07-01T00:00:15.168Z,100605.28
2018-07-01T00:02:43.348Z,100616.66
2018-07-01T00:05:12.115Z,100606.01
2018-07-01T00:07:40.188Z,100609.37
2018-07-01T00:10:09.245Z,100611.67
2018-07-01T00:12:37.756Z,100612.28
2018-07-01T00:15:06.191Z,100614.88
2018-07-01T00:17:34.309Z,100622.12
2018-07-01T00:20:02.445Z,100622.23
2018-07-01T00:22:30.541Z,100625.39
2018-07-01T00:24:58.628Z,100624.84
2018-07-01T00:27:26.697Z,100628.57
2018-07-01T00:29:54.782Z,100632.36
2018-07-01T00:32:22.852Z,100639.60
2018-07-01T00:34:50.946Z,100643.20
2018-07-01T00:37:19.037Z,100651.54
2018-07-01T00:39:47.124Z,100648.62
2018-07-01T00:42:15.208Z,100646.77
2018-07-01T00:44:43.295Z,100659.64
2018-07-01T00:47:11.405Z,100659.64
2018-07-01T00:49:39.484Z,100665.22
2018-07-01T00:52:07.574Z,100661.58
2018-07-01T00:54:35.655Z,100658.63
2018-07-01T00:57:03.754Z,100662.48
2018-07-01T00:59:31.844Z,100654.23
2018-07-01T01:01:59.919Z,100661.90
2018-07-01T01:04:28.015Z,100656.67
2018-07-01T01:06:56.179Z,100664.98
2018-07-01T01:09:24.289Z,100659.94
2018-07-01T01:11:52.447Z,100659.62
2018-07-01T01:14:20.512Z,100664.16
2018-07-01T01:16:48.586Z,100664.80
2018-07-01T01:19:16.676Z,100664.21
2018-07-01T01:21:44.769Z,100667.23
2018-07-01T01:24:12.920Z,100670.22
2018-07-01T01:26:41.039Z,100660.73
2018-07-01T01:29:09.123Z,100666.15
2018-07-01T01:31:37.204Z,100663.87
2018-07-01T01:34:05.532Z,100667.09
2018-07-01T01:36:35.271Z,100662.45
2018-07-01T01:39:05.474Z,100666.35
2018-07-01T01:41:37.959Z,100660.79
2018-07-01T01:44:09.674Z,100665.00
2018-07-01T01:46:51.323Z,100661.53
2018-07-01T01:49:23.275Z,100659.86
2018-07-01T01:51:57.692Z,100659.39
2018-07-01T01:54:30.764Z,100664.70
2018-07-01T01:57:06.292Z,100667.87
2018-07-01T01:59:40.255Z,100664.52
2018-07-01T02:02:15.707Z,100663.92
2018-07-01T02:04:58.400Z,100666.81
2018-07-01T02:07:30.680Z,100666.91
2018-07-01T02:09:58.763Z,100665.80
2018-07-01T02:12:26.842Z,100660.50
2018-07-01T02:14:57.551Z,100661.81
2018-07-01T02:17:28.662Z,100650.33
2018-07-01T02:19:56.767Z,100658.97
2018-07-01T02:22:30.539Z,100656.37
2018-07-01T02:24:59.571Z,100658.27
2018-07-01T02:27:27.670Z,100657.13
2018-07-01T02:29:55.801Z,100663.72
2018-07-01T02:32:23.885Z,100662.67
2018-07-01T02:34:51.971Z,100663.14
2018-07-01T02:37:20.065Z,100670.02
2018-07-01T02:39:48.173Z,100668.08
2018-07-01T02:42:16.262Z,100665.54
2018-07-01T02:44:44.353Z,100667.55
2018-07-01T02:47:12.433Z,100668.05
2018-07-01T02:49:40.511Z,100673.58
2018-07-01T02:52:08.591Z,100674.08
2018-07-01T02:54:36.679Z,100665.39
2018-07-01T02:57:04.752Z,100679.30
2018-07-01T02:59:32.878Z,100674.73
2018-07-01T03:02:00.943Z,100677.37
2018-07-01T03:04:29.039Z,100677.30
2018-07-01T03:06:57.114Z,100681.90
2018-07-01T03:09:25.191Z,100682.27
2018-07-01T03:11:53.267Z,100674.40
2018-07-01T03:14:21.409Z,100680.72
2018-07-01T03:16:49.495Z,100681.41
2018-07-01T03:19:17.631Z,100677.14
2018-07-01T03:21:45.856Z,100675.28
2018-07-01T03:24:13.998Z,100677.07
2018-07-01T03:26:42.072Z,100678.03
2018-07-01T03:29:10.154Z,100677.75
2018-07-01T03:31:38.262Z,100672.78
2018-07-01T03:34:06.352Z,100677.39
2018-07-01T03:36:34.416Z,100678.50
2018-07-01T03:39:02.584Z,100687.16
2018-07-01T03:41:30.719Z,100688.88
2018-07-01T03:43:58.836Z,100680.30
2018-07-01T03:46:26.924Z,100685.27
2018-07-01T03:48:55.003Z,100689.31
2018-07-01T03:51:23.071Z,100682.80
2018-07-01T03:53:51.164Z,100683.91
2018-07-01T03:56:19.252Z,100684.09
2018-07-01T03:58:47.324Z,100684.18
2018-07-01T04:01:15.403Z,100683.19
2018-07-01T04:03:43.488Z,100684.62
2018-07-01T04:06:11.678Z,100688.59
2018-07-01T04:08:39.748Z,100686.72
2018-07-01T04:11:07.839Z,100691.73
2018-07-01T04:13:35.933Z,100691.89
2018-07-01T04:16:04.274Z,100684.18
2018-07-01T04:18:32.367Z,100692.17
2018-07-01T04:21:00.447Z,100697.06
2018-07-01T04:23:28.529Z,100693.84
2018-07-01T04:25:56.614Z,100700.27
2018-07-01T04:28:24.725Z,100695.78
2018-07-01T04:30:52.842Z,100691.97
2018-07-01T04:33:20.908Z,100697.73
2018-07-01T04:35:48.972Z,100700.20
2018-07-01T04:38:17.045Z,100699.20
2018-07-01T04:40:45.146Z,100708.42
2018-07-01T04:43:13.230Z,100709.02
2018-07-01T04:45:41.318Z,100710.96
2018-07-01T04:48:09.397Z,100702.86
2018-07-01T04:50:37.551Z,100703.17
2018-07-01T04:53:05.630Z,100703.53
2018-07-01T04:55:33.720Z,100712.55
2018-07-01T04:58:01.820Z,100708.78
2018-07-01T05:00:29.898Z,100706.15
2018-07-01T05:02:58.083Z,100708.85
2018-07-01T05:05:26.155Z,100707.63
2018-07-01T05:07:54.411Z,100705.59
2018-07-01T05:10:22.492Z,100710.92
2018-07-01T05:12:50.576Z,100715.64
2018-07-01T05:15:18.759Z,100715.64
2018-07-01T05:17:46.848Z,100711.33
2018-07-01T05:20:14.925Z,100708.63
2018-07-01T05:22:43.012Z,100714.47
2018-07-01T05:25:11.084Z,100721.43
2018-07-01T05:27:39.252Z,100701.38
2018-07-01T05:30:07.283Z,100712.10
2018-07-01T05:32:35.416Z,100716.23
2018-07-01T05:35:03.543Z,100715.89
2018-07-01T05:37:31.556Z,100724.94
2018-07-01T05:39:59.642Z,100712.11
2018-07-01T05:42:27.742Z,100715.88
2018-07-01T05:44:55.815Z,100721.87
2018-07-01T05:47:23.927Z,100711.53
2018-07-01T05:49:52.044Z,100717.13
2018-07-01T05:52:20.117Z,100715.02
2018-07-01T05:54:48.199Z,100714.81
2018-07-01T05:57:16.391Z,100718.10
2018-07-01T05:59:44.374Z,100719.45
2018-07-01T06:02:12.455Z,100714.24
2018-07-01T06:04:40.535Z,100720.70
2018-07-01T06:07:08.614Z,100716.58
2018-07-01T06:09:36.733Z,100725.10
2018-07-01T06:12:04.899Z,100717.69
2018-07-01T06:14:33.008Z,100715.95
2018-07-01T06:17:01.093Z,100711.66
2018-07-01T06:19:29.203Z,100708.77
2018-07-01T06:21:57.286Z,100714.09
2018-07-01T06:24:25.383Z,100704.19
2018-07-01T06:26:53.659Z,100717.88
2018-07-01T06:29:21.779Z,100706.55
2018-07-01T06:31:49.882Z,100719.17
2018-07-01T06:34:18.090Z,100724.61
2018-07-01T06:36:46.220Z,100719.98
2018-07-01T06:39:14.331Z,100707.02
2018-07-01T06:41:42.459Z,100714.02
2018-07-01T06:44:10.582Z,100721.87
2018-07-01T06:46:38.667Z,100723.28
2018-07-01T06:49:06.766Z,100723.73
2018-07-01T06:51:34.853Z,100718.35
2018-07-01T06:54:02.956Z,100708.97
2018-07-01T06:56:31.106Z,100718.05
2018-07-01T06:58:59.136Z,100721.16
2018-07-01T07:01:27.214Z,100720.27
2018-07-01T07:03:55.279Z,100735.77
2018-07-01T07:06:23.419Z,100717.03
2018-07-01T07:08:51.495Z,100712.98
2018-07-01T07:11:19.562Z,100720.47
2018-07-01T07:13:47.652Z,100721.70
2018-07-01T07:16:15.759Z,100715.99
2018-07-01T07:18:43.885Z,100721.56
2018-07-01T07:21:11.961Z,100725.94
2018-07-01T07:23:40.033Z,100713.47
2018-07-01T07:26:08.119Z,100715.46
2018-07-01T07:28:36.196Z,100712.61
2018-07-01T07:31:04.364Z,100713.20
2018-07-01T07:33:32.430Z,100711.87
2018-07-01T07:36:00.514Z,100708.91
2018-07-01T07:38:28.606Z,100709.20
2018-07-01T07:40:56.699Z,100705.39
2018-07-01T07:43:24.782Z,100704.89
2018-07-01T07:45:52.858Z,100707.05
2018-07-01T07:48:20.930Z,100705.20
2018-07-01T07:50:49.110Z,100711.14
2018-07-01T07:53:17.224Z,100715.23
2018-07-01T07:55:45.507Z,100701.66
2018-07-01T07:58:13.616Z,100706.72
2018-07-01T08:00:41.704Z,100700.77
2018-07-01T08:03:09.776Z,100693.97
2018-07-01T08:05:37.895Z,100699.72
2018-07-01T08:08:06.278Z,100700.05
2018-07-01T08:10:34.511Z,100694.86
2018-07-01T08:13:02.663Z,100701.78
2018-07-01T08:15:30.785Z,100690.86
2018-07-01T08:17:58.867Z,100688.58
2018-07-01T08:20:26.972Z,100693.11
2018-07-01T08:22:55.051Z,100690.66
2018-07-01T08:25:23.125Z,100688.20
2018-07-01T08:27:51.223Z,100688.13
2018-07-01T08:30:19.294Z,100688.13
2018-07-01T08:32:47.426Z,100687.86
2018-07-01T08:35:15.552Z,100689.77
2018-07-01T08:37:43.703Z,100689.49
2018-07-01T08:40:11.803Z,100679.99
2018-07-01T08:42:39.951Z,100688.52
2018-07-01T08:45:08.885Z,100689.87
2018-07-01T08:47:37.304Z,100683.30
2018-07-01T08:50:06.298Z,100681.96
2018-07-01T08:52:34.475Z,100674.06
2018-07-01T08:55:02.484Z,100672.97
2018-07-01T08:57:30.654Z,100676.83
2018-07-01T08:59:58.787Z,100679.01
2018-07-01T09:02:26.858Z,100682.55
2018-07-01T09:04:54.955Z,100674.13
2018-07-01T09:07:23.067Z,100672.78
2018-07-01T09:09:51.621Z,100664.87
2018-07-01T09:12:19.715Z,100668.64
2018-07-01T09:14:47.818Z,100676.60
2018-07-01T09:17:15.939Z,100675.22
2018-07-01T09:19:44.128Z,100673.86
2018-07-01T09:22:12.210Z,100674.99
2018-07-01T09:24:40.328Z,100664.08
2018-07-01T09:27:08.425Z,100667.12
2018-07-01T09:29:40.830Z,100663.84
2018-07-01T09:32:09.199Z,100663.84
2018-07-01T09:34:37.350Z,100674.50
2018-07-01T09:37:05.546Z,100679.41
2018-07-01T09:39:33.680Z,100663.58
2018-07-01T09:42:01.800Z,100655.66
2018-07-01T09:44:29.881Z,100663.58
2018-07-01T09:46:58.051Z,100663.30
2018-07-01T09:49:26.201Z,100669.33
2018-07-01T09:51:54.315Z,100660.03
2018-07-01T09:54:22.472Z,100670.13
2018-07-01T09:56:50.627Z,100668.22
2018-07-01T09:59:18.766Z,100656.75
2018-07-01T10:01:46.830Z,100669.30
2018-07-01T10:04:14.938Z,100649.08
2018-07-01T10:06:43.022Z,100644.44
2018-07-01T10:09:11.502Z,100639.78
2018-07-01T10:11:39.751Z,100643.63
2018-07-01T10:14:08.553Z,100652.59
2018-07-01T10:16:36.691Z,100646.58
2018-07-01T10:19:05.352Z,100651.48
2018-07-01T10:21:33.472Z,100654.02
2018-07-01T10:24:01.583Z,100650.98
2018-07-01T10:26:29.704Z,100649.89
2018-07-01T10:29:15.748Z,100646.33
2018-07-01T10:31:44.726Z,100647.13
2018-07-01T10:34:13.506Z,100658.31
2018-07-01T10:36:41.658Z,100651.45
2018-07-01T10:39:11.286Z,100652.52
2018-07-01T10:41:39.430Z,100659.06
2018-07-01T10:44:07.533Z,100643.52
2018-07-01T10:46:35.668Z,100642.98
2018-07-01T10:49:03.841Z,100639.97
2018-07-01T10:51:31.958Z,100636.40
2018-07-01T10:54:00.055Z,100642.12
2018-07-01T10:56:28.173Z,100644.56
2018-07-01T10:58:56.249Z,100625.95
2018-07-01T11:01:24.335Z,100636.59
2018-07-01T11:03:52.427Z,100622.37
2018-07-01T11:06:20.605Z,100629.69
2018-07-01T11:08:48.654Z,100634.70
2018-07-01T11:11:16.739Z,100630.05
2018-07-01T11:13:44.843Z,100634.16
2018-07-01T11:16:12.928Z,100622.91
2018-07-01T11:18:41.019Z,100620.70
2018-07-01T11:21:09.282Z,100622.78
2018-07-01T11:23:37.341Z,100615.41
2018-07-01T11:26:05.671Z,100599.11
2018-07-01T11:28:33.788Z,100597.99
2018-07-01T11:31:01.916Z,100596.79
2018-07-01T11:33:29.998Z,100594.03
2018-07-01T11:35:58.091Z,100596.39
2018-07-01T11:38:26.192Z,100597.91
2018-07-01T11:40:54.388Z,100591.92
2018-07-01T11:43:22.532Z,100594.10
2018-07-01T11:45:50.607Z,100595.54
2018-07-01T11:48:18.697Z,100607.05
2018-07-01T11:50:46.779Z,100595.02
2018-07-01T11:53:14.869Z,100591.38
2018-07-01T11:55:43.016Z,100594.33
2018-07-01T11:58:11.171Z,100588.86
2018-07-01T12:00:39.227Z,100585.58
2018-07-01T12:03:07.307Z,100580.61
2018-07-01T12:05:35.652Z,100576.78
2018-07-01T12:08:03.671Z,100582.64
2018-07-01T12:10:31.758Z,100588.98
2018-07-01T12:13:05.228Z,100588.36
2018-07-01T12:15:33.342Z,100574.91
2018-07-01T12:18:01.432Z,100578.39
2018-07-01T12:20:29.511Z,100565.48
2018-07-01T12:22:57.717Z,100572.33
2018-07-01T12:25:25.803Z,100569.09
2018-07-01T12:27:53.890Z,100565.48
2018-07-01T12:30:22.102Z,100566.95
2018-07-01T12:32:50.236Z,100568.47
2018-07-01T12:35:18.550Z,100567.18
2018-07-01T12:37:46.643Z,100568.67
2018-07-01T12:40:14.741Z,100563.92
2018-07-01T12:42:42.833Z,100563.61
2018-07-01T12:45:10.927Z,100549.59
2018-07-01T12:47:39.113Z,100566.84
2018-07-01T12:50:07.287Z,100558.86
2018-07-01T12:52:35.363Z,100556.44
2018-07-01T12:55:03.455Z,100543.76
2018-07-01T12:57:31.720Z,100552.38
2018-07-01T12:59:59.872Z,100548.25
2018-07-01T13:02:48.708Z,100539.82
2018-07-01T13:05:16.791Z,100538.56
2018-07-01T13:07:45.085Z,100539.96
2018-07-01T13:10:13.164Z,100537.69
2018-07-01T13:12:41.275Z,100542.98
2018-07-01T13:15:09.408Z,100539.94
2018-07-01T13:17:37.689Z,100530.03
2018-07-01T13:20:06.043Z,100524.47
2018-07-01T13:22:34.146Z,100526.00
2018-07-01T13:25:02.254Z,100520.36
2018-07-01T13:27:30.368Z,100511.14
2018-07-01T13:29:58.931Z,100510.38
2018-07-01T13:32:27.015Z,100511.63
2018-07-01T13:34:55.122Z,100503.88
2018-07-01T13:37:23.208Z,100500.46
2018-07-01T13:39:51.276Z,100496.33
2018-07-01T13:42:19.388Z,100496.70
2018-07-01T13:44:47.502Z,100495.25
2018-07-01T13:47:15.681Z,100497.11
2018-07-01T13:49:43.904Z,100494.03
2018-07-01T13:52:12.004Z,100490.09
2018-07-01T13:54:40.147Z,100488.69
2018-07-01T13:57:08.308Z,100486.47
2018-07-01T13:59:36.366Z,100487.98
2018-07-01T14:02:04.542Z,100486.72
2018-07-01T14:04:32.931Z,100480.84
2018-07-01T14:07:01.047Z,100481.40
2018-07-01T14:09:29.141Z,100485.35
2018-07-01T14:11:57.280Z,100485.97
2018-07-01T14:14:25.362Z,100480.86
2018-07-01T14:16:53.434Z,100489.44
2018-07-01T14:19:55.155Z,100480.66
2018-07-01T14:24:24.196Z,100490.47
2018-07-01T14:26:52.373Z,100482.84
2018-07-01T14:29:20.514Z,100480.33
2018-07-01T14:31:48.604Z,100478.95
2018-07-01T14:34:16.703Z,100475.60
2018-07-01T14:36:44.812Z,100469.28
2018-07-01T14:39:13.617Z,100473.48
2018-07-01T14:41:41.840Z,100477.25
2018-07-01T14:44:09.930Z,100469.80
2018-07-01T14:46:38.083Z,100466.54
2018-07-01T14:49:06.268Z,100464.30
2018-07-01T14:51:34.586Z,100459.22
2018-07-01T14:54:02.702Z,100457.05
2018-07-01T14:56:31.190Z,100443.05
2018-07-01T14:58:59.296Z,100448.30
2018-07-01T15:01:27.368Z,100443.33
2018-07-01T15:03:55.441Z,100444.58
2018-07-01T15:06:23.527Z,100442.77
2018-07-01T15:08:51.615Z,100451.52
2018-07-01T15:11:19.695Z,100445.36
2018-07-01T15:13:47.775Z,100448.07
2018-07-01T15:16:15.844Z,100444.81
2018-07-01T15:18:43.913Z,100447.91
2018-07-01T15:21:12.016Z,100447.45
2018-07-01T15:23:40.166Z,100444.50
2018-07-01T15:26:08.250Z,100440.73
2018-07-01T15:28:36.315Z,100442.66
2018-07-01T15:31:04.499Z,100432.30
2018-07-01T15:33:32.760Z,100439.01
2018-07-01T15:36:00.806Z,100435.12
2018-07-01T15:38:28.942Z,100425.56
2018-07-01T15:40:57.032Z,100426.28
2018-07-01T15:43:25.114Z,100422.48
2018-07-01T15:45:53.308Z,100419.76
2018-07-01T15:48:21.388Z,100425.45
2018-07-01T15:50:49.479Z,100413.86
2018-07-01T15:53:17.555Z,100418.25
2018-07-01T15:55:45.662Z,100419.91
2018-07-01T15:58:13.848Z,100421.89
2018-07-01T16:00:41.951Z,100426.02
2018-07-01T16:03:10.070Z,100414.92
2018-07-01T16:05:38.167Z,100416.55
2018-07-01T16:08:06.266Z,100411.87
2018-07-01T16:10:34.344Z,100422.21
2018-07-01T16:13:02.405Z,100423.13
2018-07-01T16:15:30.503Z,100416.76
2018-07-01T16:17:58.579Z,100414.61
2018-07-01T16:20:26.686Z,100413.51
2018-07-01T16:22:54.749Z,100411.81
2018-07-01T16:25:28.057Z,100418.17
2018-07-01T16:28:01.536Z,100416.18
2018-07-01T16:30:29.632Z,100416.53
2018-07-01T16:32:57.703Z,100416.55
2018-07-01T16:35:25.813Z,100408.56
2018-07-01T16:37:54.264Z,100418.00
2018-07-01T16:40:22.389Z,100412.59
2018-07-01T16:42:50.500Z,100413.50
2018-07-01T16:45:18.584Z,100407.64
2018-07-01T16:47:46.735Z,100409.16
2018-07-01T16:50:14.860Z,100412.91
2018-07-01T16:52:43.075Z,100416.99
2018-07-01T16:55:11.188Z,100409.02
2018-07-01T16:57:39.357Z,100412.16
2018-07-01T17:00:08.145Z,100408.67
2018-07-01T17:02:36.265Z,100414.59
2018-07-01T17:05:04.470Z,100413.63
2018-07-01T17:07:32.590Z,100409.80
2018-07-01T17:10:00.881Z,100409.94
2018-07-01T17:12:28.963Z,100410.42
2018-07-01T17:14:57.259Z,100406.53
2018-07-01T17:17:25.475Z,100404.00
2018-07-01T17:19:53.536Z,100406.32
2018-07-01T17:22:21.717Z,100411.45
2018-07-01T17:24:49.699Z,100409.11
2018-07-01T17:27:17.788Z,100404.33
2018-07-01T17:29:45.844Z,100407.88
2018-07-01T17:32:19.356Z,100409.89
2018-07-01T17:34:47.424Z,100405.34
2018-07-01T17:37:15.512Z,100411.71
2018-07-01T17:39:43.641Z,100408.16
2018-07-01T17:42:11.816Z,100405.88
2018-07-01T17:44:39.959Z,100408.27
2018-07-01T17:47:08.083Z,100410.34
2018-07-01T17:49:36.143Z,100410.36
2018-07-01T17:52:04.241Z,100402.41
2018-07-01T17:54:32.323Z,100404.36
2018-07-01T17:57:00.476Z,100409.38
2018-07-01T17:59:28.604Z,100407.22
2018-07-01T18:01:56.661Z,100402.34
2018-07-01T18:04:24.791Z,100401.44
2018-07-01T18:06:52.886Z,100403.13
2018-07-01T18:09:20.964Z,100405.72
2018-07-01T18:11:49.099Z,100398.81
2018-07-01T18:14:17.225Z,100405.47
2018-07-01T18:16:45.352Z,100410.25
2018-07-01T18:19:13.481Z,100412.66
2018-07-01T18:24:35.138Z,100418.71
2018-07-01T18:26:34.076Z,100413.20
2018-07-01T18:29:10.780Z,100413.81
2018-07-01T18:31:30.273Z,100413.30
2018-07-01T18:33:58.405Z,100415.80
2018-07-01T18:36:26.527Z,100414.39
2018-07-01T18:38:54.678Z,100412.89
2018-07-01T18:41:22.824Z,100416.96
2018-07-01T18:43:50.984Z,100418.25
2018-07-01T18:46:19.158Z,100415.17
2018-07-01T18:48:47.283Z,100416.95
2018-07-01T18:53:43.535Z,100418.41
2018-07-01T18:56:11.946Z,100422.89
2018-07-01T18:58:40.090Z,100424.32
2018-07-01T19:01:08.192Z,100420.44
2018-07-01T19:03:36.344Z,100422.71
2018-07-01T19:06:04.536Z,100429.62
2018-07-01T19:08:33.313Z,100426.29
2018-07-01T19:11:01.425Z,100425.59
2018-07-01T19:13:29.594Z,100426.97
2018-07-01T19:15:57.750Z,100425.38
2018-07-01T19:18:25.893Z,100431.80
2018-07-01T19:20:54.049Z,100434.86
2018-07-01T19:23:22.220Z,100434.38
2018-07-01T19:25:50.342Z,100425.32
2018-07-01T19:28:18.525Z,100429.27
2018-07-01T19:30:46.654Z,100434.26
2018-07-01T19:33:14.782Z,100439.34
2018-07-01T19:35:42.906Z,100440.04
2018-07-01T19:38:11.066Z,100438.66
2018-07-01T19:40:39.236Z,100443.59
2018-07-01T19:43:07.404Z,100445.59
2018-07-01T19:45:35.562Z,100450.83
2018-07-01T19:48:03.703Z,100451.19
2018-07-01T19:50:31.832Z,100452.58
2018-07-01T19:52:59.969Z,100452.71
2018-07-01T19:55:28.094Z,100463.11
2018-07-01T19:57:56.220Z,100458.71
2018-07-01T20:00:24.382Z,100460.37
2018-07-01T20:02:52.486Z,100467.53
2018-07-01T20:05:21.191Z,100461.59
2018-07-01T20:07:49.327Z,100461.59
2018-07-01T20:10:17.492Z,100465.19
2018-07-01T20:12:45.642Z,100469.83
2018-07-01T20:15:13.750Z,100472.04
2018-07-01T20:17:41.945Z,100472.59
2018-07-01T20:20:10.115Z,100475.94
2018-07-01T20:22:38.271Z,100486.06
2018-07-01T20:25:06.387Z,100490.70
2018-07-01T20:27:34.524Z,100490.38
2018-07-01T20:30:02.677Z,100486.61
2018-07-01T20:32:30.827Z,100491.53
2018-07-01T20:34:59.123Z,100489.34
2018-07-01T20:37:27.527Z,100488.00
2018-07-01T20:39:55.659Z,100494.57
2018-07-01T20:42:23.883Z,100491.02
2018-07-01T20:44:51.996Z,100495.11
2018-07-01T20:47:20.183Z,100502.24
2018-07-01T20:49:48.322Z,100499.23
2018-07-01T20:52:16.512Z,100499.78
2018-07-01T20:54:44.662Z,100499.50
2018-07-01T20:57:12.766Z,100498.42
2018-07-01T20:59:40.893Z,100505.77
2018-07-01T21:02:09.017Z,100509.03
2018-07-01T21:04:37.790Z,100504.97
2018-07-01T21:07:05.924Z,100513.15
2018-07-01T21:09:34.056Z,100509.58
2018-07-01T21:12:02.164Z,100512.59
2018-07-01T21:14:30.306Z,100512.85
2018-07-01T21:16:58.450Z,100515.86
2018-07-01T21:19:26.601Z,100516.40
2018-07-01T21:21:54.732Z,100515.03
2018-07-01T21:24:22.855Z,100513.92
2018-07-01T21:26:51.154Z,100523.97
2018-07-01T21:29:19.282Z,100519.77
2018-07-01T21:31:48.139Z,100524.39
2018-07-01T21:34:16.345Z,100524.59
2018-07-01T21:36:44.572Z,100528.62
2018-07-01T21:39:12.777Z,100532.30
2018-07-01T21:41:41.523Z,100535.30
2018-07-01T21:44:09.897Z,100536.31
2018-07-01T21:46:38.351Z,100538.67
2018-07-01T21:49:08.372Z,100540.15
2018-07-01T21:51:36.751Z,100545.83
2018-07-01T21:54:05.013Z,100549.56
2018-07-01T21:56:33.313Z,100547.97
2018-07-01T21:59:01.576Z,100553.30
2018-07-01T22:01:29.764Z,100551.72
2018-07-01T22:03:57.927Z,100557.65
2018-07-01T22:06:38.602Z,100559.17
2018-07-01T22:09:07.544Z,100553.51
2018-07-01T22:11:52.354Z,100554.69
2018-07-01T22:14:23.681Z,100557.03
2018-07-01T22:16:51.809Z,100563.87
2018-07-01T22:19:20.653Z,100560.24
2018-07-01T22:21:49.792Z,100566.16
2018-07-01T22:24:17.870Z,100568.23
2018-07-01T22:26:46.668Z,100566.16
2018-07-01T22:30:40.014Z,100572.23
2018-07-01T22:33:08.531Z,100582.14
2018-07-01T22:35:41.430Z,100575.44
2018-07-01T22:38:09.652Z,100575.88
2018-07-01T22:40:37.975Z,100576.06
2018-07-01T22:43:06.112Z,100575.71
2018-07-01T22:45:34.679Z,100576.50
2018-07-01T22:48:02.858Z,100576.36
2018-07-01T22:50:31.272Z,100579.67
2018-07-01T22:52:59.457Z,100582.96
2018-07-01T22:55:27.737Z,100582.39
2018-07-01T22:57:56.052Z,100589.75
2018-07-01T23:00:24.319Z,100579.62
2018-07-01T23:03:06.365Z,100585.00
2018-07-01T23:05:34.502Z,100585.12
2018-07-01T23:08:02.606Z,100587.10
2018-07-01T23:10:31.449Z,100592.16
2018-07-01T23:12:59.975Z,100590.44
2018-07-01T23:15:28.142Z,100587.32
2018-07-01T23:17:56.299Z,100591.59
2018-07-01T23:20:24.610Z,100589.71
2018-07-01T23:22:52.875Z,100582.45
2018-07-01T23:25:21.018Z,100594.13
2018-07-01T23:27:49.243Z,100587.23
2018-07-01T23:30:17.656Z,100576.34
2018-07-01T23:32:46.042Z,100580.28
2018-07-01T23:35:14.166Z,100579.75
2018-07-01T23:37:42.256Z,100581.85
2018-07-01T23:40:11.030Z,100576.11
2018-07-01T23:42:39.727Z,100570.94
2018-07-01T23:45:09.007Z,100568.68
2018-07-01T23:47:37.105Z,100563.48
2018-07-01T23:50:05.956Z,100563.46
2018-07-01T23:52:34.027Z,100564.45
2018-07-01T23:55:02.117Z,100562.11
2018-07-01T23:57:30.226Z,100552.19
2018-07-01T23:59:58.363Z,100554.97
